Time;durP1;ratioP1;P1;durP2;ratioP2;P2;SDS_P1;SDS_P2;PMS_P1;PMS_P2;Temp;Humidity;BMP_temperature;BMP_pressure;BME280_temperature;BME280_humidity;BME280_pressure;Samples;Min_cycle;Max_cycle;Signal;HPM_P1;HPM_P2
2022/03/09 00:02:32;;;;;;;;;10.25;7.25;;;;;;;;5019432;28;51202;-58
2022/03/09 00:05:17;;;;;;;;;9.25;8.75;;;;;;;;5032234;28;51261;-59
2022/03/09 00:08:01;;;;;;;;;9.00;8.75;;;;;;;;5022794;28;51079;-58
2022/03/09 00:10:47;;;;;;;;;9.75;8.75;;;;;;;;5026085;28;51548;-58
2022/03/09 00:13:31;;;;;;;;;8.75;8.00;;;;;;;;5036180;28;51102;-58
2022/03/09 00:16:16;;;;;;;;;11.25;9.75;;;;;;;;5036033;28;51346;-58
2022/03/09 00:19:00;;;;;;;;;12.00;9.75;;;;;;;;5022089;28;51104;-59
2022/03/09 00:21:44;;;;;;;;;11.75;8.00;;;;;;;;5022373;28;51107;-59
2022/03/09 00:24:29;;;;;;;;;10.25;8.25;;;;;;;;5023463;28;51520;-58
2022/03/09 00:27:14;;;;;;;;;9.50;8.00;;;;;;;;5028171;28;51085;-58
2022/03/09 00:29:58;;;;;;;;;14.00;10.50;;;;;;;;5032868;28;51122;-58
2022/03/09 00:32:43;;;;;;;;;12.50;10.00;;;;;;;;5032270;28;51106;-58
2022/03/09 00:35:30;;;;;;;;;11.75;10.25;;;;;;;;5021368;28;51626;-59
2022/03/09 00:38:15;;;;;;;;;14.00;8.75;;;;;;;;5021423;28;51189;-58
2022/03/09 00:41:01;;;;;;;;;10.00;9.00;;;;;;;;5017521;28;51155;-58
2022/03/09 00:43:45;;;;;;;;;13.00;9.75;;;;;;;;5034299;28;52082;-57
2022/03/09 00:46:29;;;;;;;;;11.75;11.00;;;;;;;;5022309;28;51151;-58
2022/03/09 00:49:15;;;;;;;;;11.75;8.50;;;;;;;;5029137;28;51308;-58
2022/03/09 00:51:59;;;;;;;;;10.50;10.50;;;;;;;;5027253;28;51051;-59
2022/03/09 00:54:44;;;;;;;;;8.00;8.00;;;;;;;;5021117;28;51181;-58
2022/03/09 00:57:28;;;;;;;;;12.75;10.00;;;;;;;;5021443;28;51135;-59
2022/03/09 01:00:13;;;;;;;;;13.25;10.00;;;;;;;;5021108;28;51100;-59
2022/03/09 01:02:57;;;;;;;;;10.00;9.00;;;;;;;;5034741;28;51150;-57
2022/03/09 01:05:41;;;;;;;;;9.50;6.75;;;;;;;;5021137;28;51490;-58
2022/03/09 01:08:26;;;;;;;;;4.25;3.50;;;;;;;;5021176;28;51103;-58
2022/03/09 01:11:11;;;;;;;;;11.25;7.75;;;;;;;;5036521;28;50993;-58
2022/03/09 01:13:55;;;;;;;;;11.25;10.00;;;;;;;;5018207;28;51079;-58
2022/03/09 01:16:39;;;;;;;;;12.50;8.50;;;;;;;;5019959;28;51276;-58
2022/03/09 01:19:24;;;;;;;;;18.00;12.75;;;;;;;;5017059;28;51158;-58
2022/03/09 01:22:08;;;;;;;;;216.50;178.75;;;;;;;;5025615;28;51164;-57
2022/03/09 01:24:53;;;;;;;;;179.25;153.75;;;;;;;;5020175;28;51051;-58
2022/03/09 01:27:37;;;;;;;;;65.75;49.50;;;;;;;;5020766;28;51128;-58
2022/03/09 01:30:21;;;;;;;;;35.25;30.00;;;;;;;;5041215;28;51154;-58
2022/03/09 01:33:06;;;;;;;;;21.75;17.50;;;;;;;;5019346;28;52392;-58
2022/03/09 01:35:50;;;;;;;;;16.00;11.50;;;;;;;;5019349;28;51505;-58
2022/03/09 01:38:35;;;;;;;;;27.25;20.75;;;;;;;;5020509;28;51438;-58
2022/03/09 01:41:19;;;;;;;;;18.00;15.25;;;;;;;;5023780;28;51613;-58
2022/03/09 01:44:14;;;;;;;;;13.75;10.00;;;;;;;;5020317;28;51071;-57
2022/03/09 01:46:59;;;;;;;;;12.25;9.25;;;;;;;;5020396;28;51101;-58
2022/03/09 01:49:43;;;;;;;;;13.50;9.25;;;;;;;;5020146;28;51189;-58
2022/03/09 01:52:28;;;;;;;;;21.50;16.50;;;;;;;;5019556;28;51189;-58
2022/03/09 01:55:12;;;;;;;;;14.00;10.00;;;;;;;;5038715;28;51186;-58
2022/03/09 01:57:56;;;;;;;;;11.25;9.00;;;;;;;;5023736;28;51107;-58
2022/03/09 02:00:41;;;;;;;;;12.00;11.00;;;;;;;;5017665;28;51094;-58
2022/03/09 02:03:26;;;;;;;;;12.50;9.75;;;;;;;;5018502;28;51529;-57
2022/03/09 02:06:10;;;;;;;;;10.75;7.00;;;;;;;;5025032;28;51442;-58
2022/03/09 02:11:58;;;;;;;;;11.75;10.75;;;;;;;;5019939;28;51110;-58
2022/03/09 02:14:43;;;;;;;;;12.75;9.75;;;;;;;;5033004;28;51083;-58
2022/03/09 02:17:28;;;;;;;;;13.00;9.75;;;;;;;;5019244;28;51111;-58
2022/03/09 02:20:12;;;;;;;;;5.00;5.00;;;;;;;;5031428;28;50980;-58
2022/03/09 02:22:58;;;;;;;;;12.50;9.25;;;;;;;;5022689;28;51472;-58
2022/03/09 02:25:42;;;;;;;;;9.75;8.50;;;;;;;;5016926;28;51062;-57
2022/03/09 02:28:27;;;;;;;;;19.00;11.00;;;;;;;;5019402;28;51139;-57
2022/03/09 02:31:11;;;;;;;;;9.00;8.50;;;;;;;;5020856;28;51547;-58
2022/03/09 02:33:56;;;;;;;;;10.50;7.00;;;;;;;;5019285;28;51493;-58
2022/03/09 02:36:41;;;;;;;;;7.25;5.25;;;;;;;;5025198;28;51258;-58
2022/03/09 02:39:25;;;;;;;;;14.75;10.00;;;;;;;;5016628;28;51239;-57
2022/03/09 02:42:11;;;;;;;;;13.75;9.75;;;;;;;;5017753;28;51179;-57
2022/03/09 02:44:55;;;;;;;;;12.50;8.25;;;;;;;;5019613;28;51001;-58
2022/03/09 02:47:40;;;;;;;;;10.75;9.00;;;;;;;;5020151;28;51080;-57
2022/03/09 02:50:24;;;;;;;;;13.00;9.75;;;;;;;;5021372;28;51166;-58
2022/03/09 02:53:11;;;;;;;;;10.25;8.25;;;;;;;;5017771;28;52134;-58
2022/03/09 02:55:55;;;;;;;;;12.25;10.25;;;;;;;;5019316;28;51710;-58
2022/03/09 02:58:40;;;;;;;;;12.75;10.00;;;;;;;;5018654;28;51109;-58
2022/03/09 03:01:24;;;;;;;;;10.50;8.00;;;;;;;;5019543;28;51040;-58
2022/03/09 03:04:09;;;;;;;;;10.50;10.25;;;;;;;;5015973;28;51104;-57
2022/03/09 03:06:53;;;;;;;;;9.00;7.75;;;;;;;;5018602;28;51168;-58
2022/03/09 03:09:38;;;;;;;;;8.25;7.00;;;;;;;;5036325;28;51439;-58
2022/03/09 03:12:22;;;;;;;;;11.75;9.50;;;;;;;;5020669;28;51087;-58
2022/03/09 03:15:07;;;;;;;;;12.75;11.50;;;;;;;;5019206;28;51155;-58
2022/03/09 03:17:51;;;;;;;;;7.75;7.75;;;;;;;;5018562;28;51087;-58
2022/03/09 03:20:35;;;;;;;;;12.25;9.50;;;;;;;;5019235;28;51174;-58
2022/03/09 03:23:24;;;;;;;;;14.25;11.25;;;;;;;;5031220;28;51897;-57
2022/03/09 03:26:08;;;;;;;;;10.75;7.25;;;;;;;;5033486;28;51052;-58
2022/03/09 03:28:52;;;;;;;;;15.25;11.00;;;;;;;;5030217;28;51131;-58
2022/03/09 03:31:37;;;;;;;;;14.75;10.00;;;;;;;;5018959;28;51099;-58
2022/03/09 03:34:21;;;;;;;;;10.00;9.00;;;;;;;;5023288;28;51158;-57
2022/03/09 03:37:06;;;;;;;;;11.75;9.50;;;;;;;;5020974;28;51115;-58
2022/03/09 03:39:50;;;;;;;;;11.75;10.25;;;;;;;;5019500;28;51140;-58
2022/03/09 03:42:34;;;;;;;;;15.75;10.00;;;;;;;;5019751;28;51171;-57
2022/03/09 03:45:19;;;;;;;;;12.75;8.75;;;;;;;;5040606;28;51440;-58
2022/03/09 03:48:03;;;;;;;;;10.25;8.25;;;;;;;;5018898;28;51185;-58
2022/03/09 03:50:48;;;;;;;;;10.75;9.25;;;;;;;;5034465;28;51658;-58
2022/03/09 03:53:32;;;;;;;;;12.75;9.00;;;;;;;;5031220;28;51302;-57
2022/03/09 03:56:17;;;;;;;;;11.25;10.00;;;;;;;;5024148;28;51073;-58
2022/03/09 03:59:01;;;;;;;;;7.50;5.75;;;;;;;;5023403;28;51201;-56
2022/03/09 04:01:45;;;;;;;;;11.50;8.75;;;;;;;;5025007;28;51142;-58
2022/03/09 04:04:30;;;;;;;;;13.00;10.75;;;;;;;;5022803;28;51033;-58
2022/03/09 04:07:14;;;;;;;;;11.50;10.00;;;;;;;;5021854;28;51452;-57
2022/03/09 04:09:59;;;;;;;;;13.75;11.75;;;;;;;;5022661;28;51074;-58
2022/03/09 04:12:43;;;;;;;;;11.50;10.00;;;;;;;;5039212;28;51154;-57
2022/03/09 04:15:27;;;;;;;;;16.75;12.25;;;;;;;;5038464;28;51107;-58
2022/03/09 04:18:12;;;;;;;;;12.50;9.50;;;;;;;;5021505;28;51529;-57
2022/03/09 04:20:56;;;;;;;;;14.75;13.00;;;;;;;;5032297;28;51221;-58
2022/03/09 04:23:41;;;;;;;;;12.25;10.75;;;;;;;;5028983;28;51052;-58
2022/03/09 04:26:25;;;;;;;;;16.25;12.25;;;;;;;;5020379;28;51067;-58
2022/03/09 04:29:10;;;;;;;;;10.75;9.00;;;;;;;;5036955;28;51961;-58
2022/03/09 04:31:55;;;;;;;;;13.25;10.25;;;;;;;;5019327;28;51317;-58
2022/03/09 04:34:40;;;;;;;;;14.75;10.75;;;;;;;;5020192;28;51369;-57
2022/03/09 04:37:24;;;;;;;;;12.50;8.25;;;;;;;;5018656;28;51170;-57
2022/03/09 04:40:09;;;;;;;;;15.75;9.75;;;;;;;;5032313;28;51020;-58
2022/03/09 04:42:53;;;;;;;;;15.75;13.00;;;;;;;;5021631;28;51198;-58
2022/03/09 04:45:37;;;;;;;;;13.50;11.25;;;;;;;;5021271;28;51107;-58
2022/03/09 04:48:22;;;;;;;;;11.50;6.75;;;;;;;;5027931;28;51589;-58
2022/03/09 04:51:06;;;;;;;;;12.25;10.00;;;;;;;;5024794;28;51170;-58
2022/03/09 04:53:50;;;;;;;;;15.50;10.00;;;;;;;;5041779;28;51146;-57
2022/03/09 04:56:35;;;;;;;;;10.00;10.00;;;;;;;;5021828;28;52076;-58
2022/03/09 04:59:20;;;;;;;;;13.00;10.50;;;;;;;;5021665;28;51103;-58
2022/03/09 05:02:04;;;;;;;;;15.25;10.75;;;;;;;;5018396;28;51128;-57
2022/03/09 05:04:49;;;;;;;;;14.00;10.25;;;;;;;;5019970;28;51045;-57
2022/03/09 05:07:33;;;;;;;;;13.50;10.50;;;;;;;;5037927;28;51518;-58
2022/03/09 05:10:18;;;;;;;;;13.25;10.25;;;;;;;;5019612;28;51158;-58
2022/03/09 05:13:02;;;;;;;;;11.25;10.75;;;;;;;;5029543;28;51128;-58
2022/03/09 05:15:46;;;;;;;;;11.75;10.75;;;;;;;;5024005;28;51152;-58
2022/03/09 05:18:30;;;;;;;;;17.75;13.25;;;;;;;;5041525;28;51011;-58
2022/03/09 05:21:15;;;;;;;;;13.00;12.25;;;;;;;;5017991;28;51166;-58
2022/03/09 05:23:59;;;;;;;;;15.00;11.25;;;;;;;;5026922;28;51519;-57
2022/03/09 05:26:46;;;;;;;;;14.00;13.25;;;;;;;;5021836;28;51551;-58
2022/03/09 05:29:30;;;;;;;;;18.50;11.75;;;;;;;;5033249;28;51202;-58
2022/03/09 05:32:15;;;;;;;;;13.75;11.75;;;;;;;;5021782;28;51179;-58
2022/03/09 05:34:59;;;;;;;;;17.50;13.75;;;;;;;;5020421;28;51228;-58
2022/03/09 05:37:44;;;;;;;;;11.75;11.75;;;;;;;;5029312;28;51372;-58
2022/03/09 05:40:28;;;;;;;;;15.50;12.50;;;;;;;;5018181;28;51159;-58
2022/03/09 05:43:13;;;;;;;;;15.25;14.00;;;;;;;;5029160;28;51083;-58
2022/03/09 05:45:57;;;;;;;;;14.50;14.50;;;;;;;;5031442;28;51372;-58
2022/03/09 05:48:42;;;;;;;;;14.75;14.75;;;;;;;;5029663;28;51444;-58
2022/03/09 05:51:26;;;;;;;;;14.75;12.25;;;;;;;;5019524;28;51253;-58
2022/03/09 05:54:10;;;;;;;;;17.25;14.25;;;;;;;;5020325;28;51107;-57
2022/03/09 05:56:55;;;;;;;;;14.50;12.25;;;;;;;;5020007;28;51134;-57
2022/03/09 05:59:39;;;;;;;;;24.50;17.75;;;;;;;;5019698;28;51178;-58
2022/03/09 06:02:24;;;;;;;;;11.00;11.00;;;;;;;;5019779;28;51326;-58
2022/03/09 06:05:08;;;;;;;;;15.00;12.00;;;;;;;;5037988;28;51158;-58
2022/03/09 06:07:53;;;;;;;;;18.75;12.25;;;;;;;;5020175;28;51009;-58
2022/03/09 06:10:37;;;;;;;;;17.50;14.00;;;;;;;;5024694;28;51028;-57
2022/03/09 06:13:22;;;;;;;;;19.00;15.25;;;;;;;;5029249;28;51051;-47
2022/03/09 06:16:06;;;;;;;;;15.00;12.00;;;;;;;;5023393;28;51165;-43
2022/03/09 06:18:51;;;;;;;;;15.75;11.50;;;;;;;;5020062;28;51107;-44
2022/03/09 06:21:35;;;;;;;;;18.50;13.00;;;;;;;;5018465;28;51560;-45
2022/03/09 06:24:19;;;;;;;;;17.50;15.25;;;;;;;;5021892;28;51185;-44
2022/03/09 06:27:04;;;;;;;;;18.00;16.25;;;;;;;;5033484;28;51030;-44
2022/03/09 06:29:48;;;;;;;;;16.50;15.50;;;;;;;;5030777;28;51059;-45
2022/03/09 06:32:32;;;;;;;;;14.75;12.25;;;;;;;;5018620;28;51131;-45
2022/03/09 06:35:17;;;;;;;;;16.50;14.00;;;;;;;;5015051;28;51501;-44
2022/03/09 06:38:01;;;;;;;;;23.25;14.75;;;;;;;;5015872;28;51503;-43
2022/03/09 06:40:46;;;;;;;;;18.50;12.25;;;;;;;;5018121;28;51017;-46
2022/03/09 06:43:30;;;;;;;;;16.25;12.75;;;;;;;;5018132;28;51124;-44
2022/03/09 06:46:16;;;;;;;;;16.25;13.75;;;;;;;;5017546;28;51181;-44
2022/03/09 06:49:00;;;;;;;;;12.25;11.50;;;;;;;;5013947;28;51174;-45
2022/03/09 06:51:47;;;;;;;;;18.25;14.50;;;;;;;;5010452;28;51451;-47
2022/03/09 06:54:31;;;;;;;;;17.75;14.50;;;;;;;;5017390;28;51206;-46
2022/03/09 07:01:03;;;;;;;;;18.50;15.75;;;;;;;;4971289;28;51275;-49
2022/03/09 07:03:48;;;;;;;;;14.00;12.25;;;;;;;;4912241;28;51549;-47
2022/03/09 07:06:32;;;;;;;;;13.75;13.50;;;;;;;;4881337;29;51206;-50
2022/03/09 07:09:16;;;;;;;;;19.00;12.00;;;;;;;;4881938;29;51177;-47
2022/03/09 07:12:00;;;;;;;;;16.00;13.00;;;;;;;;4879883;29;51480;-45
2022/03/09 07:14:45;;;;;;;;;14.25;12.50;;;;;;;;4881024;29;51150;-48
2022/03/09 07:17:29;;;;;;;;;17.25;13.00;;;;;;;;4881085;29;51175;-47
2022/03/09 07:20:14;;;;;;;;;15.25;13.00;;;;;;;;4881390;29;51592;-45
2022/03/09 07:22:59;;;;;;;;;15.75;12.25;;;;;;;;4881148;29;51331;-49
2022/03/09 07:25:44;;;;;;;;;18.00;12.50;;;;;;;;4881288;29;51216;-49
2022/03/09 07:28:28;;;;;;;;;15.75;13.75;;;;;;;;4881149;29;51421;-47
2022/03/09 07:31:13;;;;;;;;;15.25;11.25;;;;;;;;4881331;29;51152;-48
2022/03/09 07:33:57;;;;;;;;;16.75;11.75;;;;;;;;4882349;29;51195;-45
2022/03/09 07:36:41;;;;;;;;;17.75;13.75;;;;;;;;4881380;29;51263;-49
2022/03/09 07:39:29;;;;;;;;;16.00;13.75;;;;;;;;4922475;28;51182;-47
2022/03/09 07:42:13;;;;;;;;;11.00;11.00;;;;;;;;4979269;28;51408;-51
2022/03/09 07:44:57;;;;;;;;;12.75;11.00;;;;;;;;4980391;28;51315;-46
2022/03/09 07:47:42;;;;;;;;;11.50;9.25;;;;;;;;4983158;28;51089;-48
2022/03/09 07:50:27;;;;;;;;;15.25;11.75;;;;;;;;4993187;28;51198;-45
2022/03/09 07:53:11;;;;;;;;;12.00;11.00;;;;;;;;4993315;28;51514;-48
2022/03/09 07:55:55;;;;;;;;;13.75;9.75;;;;;;;;4990235;28;51362;-48
2022/03/09 07:58:40;;;;;;;;;15.25;14.00;;;;;;;;4983360;28;51106;-49
2022/03/09 08:01:24;;;;;;;;;17.50;15.75;;;;;;;;4994437;28;51091;-48
2022/03/09 08:04:08;;;;;;;;;12.50;11.50;;;;;;;;5031040;28;51532;-48
2022/03/09 08:06:54;;;;;;;;;17.25;13.00;;;;;;;;5022034;28;51473;-46
2022/03/09 08:09:38;;;;;;;;;19.50;13.75;;;;;;;;5026654;28;51096;-47
2022/03/09 08:12:22;;;;;;;;;12.00;11.75;;;;;;;;5023002;28;51027;-49
2022/03/09 08:15:07;;;;;;;;;13.25;13.00;;;;;;;;5032450;28;51020;-46
2022/03/09 08:17:51;;;;;;;;;13.50;10.00;;;;;;;;5029235;28;51438;-48
2022/03/09 08:20:35;;;;;;;;;12.50;11.00;;;;;;;;5021827;28;51298;-49
2022/03/09 08:23:20;;;;;;;;;12.25;10.00;;;;;;;;5021619;28;51226;-46
2022/03/09 08:26:04;;;;;;;;;15.25;9.00;;;;;;;;5024164;28;51416;-47
2022/03/09 08:28:49;;;;;;;;;8.50;8.00;;;;;;;;5022544;28;51090;-44
2022/03/09 08:31:33;;;;;;;;;9.25;9.25;;;;;;;;5021701;28;51036;-45
2022/03/09 08:34:18;;;;;;;;;12.25;9.25;;;;;;;;5023486;28;51053;-45
2022/03/09 08:37:02;;;;;;;;;11.00;9.25;;;;;;;;5026108;28;51102;-50
2022/03/09 08:39:48;;;;;;;;;8.25;8.25;;;;;;;;5026050;28;51086;-51
2022/03/09 08:42:32;;;;;;;;;13.75;9.75;;;;;;;;5028488;28;51392;-47
2022/03/09 08:45:16;;;;;;;;;11.25;9.25;;;;;;;;5006434;28;51245;-44
2022/03/09 08:48:01;;;;;;;;;14.25;10.50;;;;;;;;5018078;28;51473;-46
2022/03/09 08:50:45;;;;;;;;;10.75;8.75;;;;;;;;5022475;28;51514;-49
2022/03/09 08:53:31;;;;;;;;;12.75;11.00;;;;;;;;5024601;28;51183;-49
2022/03/09 08:56:15;;;;;;;;;10.00;9.75;;;;;;;;5024500;28;51150;-45
2022/03/09 08:58:59;;;;;;;;;8.25;7.50;;;;;;;;5036363;28;51020;-51
2022/03/09 09:01:43;;;;;;;;;10.00;9.00;;;;;;;;5021154;28;51425;-47
2022/03/09 09:04:28;;;;;;;;;12.25;9.00;;;;;;;;5034873;28;51072;-45
2022/03/09 09:07:12;;;;;;;;;8.25;7.00;;;;;;;;5021953;28;51439;-47
2022/03/09 09:09:56;;;;;;;;;10.75;9.75;;;;;;;;5027091;28;51027;-50
2022/03/09 09:12:41;;;;;;;;;11.50;8.75;;;;;;;;5028474;28;51121;-46
2022/03/09 09:15:25;;;;;;;;;13.75;9.75;;;;;;;;5031623;28;51201;-47
2022/03/09 09:18:10;;;;;;;;;14.50;9.25;;;;;;;;5024001;28;51075;-46
2022/03/09 09:20:54;;;;;;;;;11.50;9.25;;;;;;;;5026231;28;51369;-45
2022/03/09 09:23:38;;;;;;;;;9.50;9.25;;;;;;;;5035894;28;51360;-47
2022/03/09 09:26:23;;;;;;;;;10.75;10.25;;;;;;;;5016534;28;51112;-46
2022/03/09 09:29:07;;;;;;;;;10.75;9.50;;;;;;;;5021760;28;51043;-46
2022/03/09 09:31:51;;;;;;;;;8.25;8.25;;;;;;;;5020582;28;51191;-46
2022/03/09 09:34:36;;;;;;;;;11.25;8.50;;;;;;;;5031133;28;51148;-47
2022/03/09 09:37:20;;;;;;;;;7.50;7.50;;;;;;;;5022507;28;51113;-47
2022/03/09 09:40:07;;;;;;;;;13.50;9.75;;;;;;;;5033662;28;51426;-46
2022/03/09 09:42:51;;;;;;;;;9.25;9.00;;;;;;;;5024059;28;51139;-47
2022/03/09 09:45:35;;;;;;;;;15.00;11.75;;;;;;;;5017964;28;51517;-46
2022/03/09 09:48:22;;;;;;;;;8.00;6.50;;;;;;;;5028957;28;51149;-48
2022/03/09 09:51:07;;;;;;;;;11.00;10.25;;;;;;;;5023489;28;51468;-50
2022/03/09 09:53:52;;;;;;;;;13.75;8.75;;;;;;;;5033699;28;51150;-47
2022/03/09 09:56:38;;;;;;;;;10.50;8.50;;;;;;;;5031790;28;51024;-44
2022/03/09 09:59:22;;;;;;;;;9.00;9.00;;;;;;;;5030052;28;51107;-45
2022/03/09 10:02:07;;;;;;;;;9.75;8.25;;;;;;;;5031671;28;51103;-45
2022/03/09 10:04:51;;;;;;;;;14.50;12.75;;;;;;;;5028055;28;51032;-46
2022/03/09 10:07:55;;;;;;;;;11.25;11.00;;;;;;;;5028590;28;51094;-46
2022/03/09 10:10:41;;;;;;;;;12.00;8.75;;;;;;;;5026789;28;51389;-49
2022/03/09 10:13:27;;;;;;;;;11.00;7.50;;;;;;;;5022510;28;51483;-49
2022/03/09 10:16:20;;;;;;;;;9.00;7.25;;;;;;;;5030832;28;51471;-49
2022/03/09 10:19:04;;;;;;;;;9.25;7.25;;;;;;;;5018823;28;51104;-44
2022/03/09 10:21:48;;;;;;;;;10.75;9.00;;;;;;;;5018849;28;51238;-48
2022/03/09 10:24:33;;;;;;;;;8.50;8.00;;;;;;;;5024366;28;51114;-47
2022/03/09 10:27:35;;;;;;;;;9.25;8.00;;;;;;;;5021965;28;51037;-45
2022/03/09 10:30:20;;;;;;;;;10.50;8.25;;;;;;;;5018127;28;51208;-47
2022/03/09 10:33:05;;;;;;;;;11.00;9.75;;;;;;;;5017929;28;51276;-45
2022/03/09 10:35:50;;;;;;;;;10.00;9.00;;;;;;;;5033399;28;51459;-46
2022/03/09 10:38:34;;;;;;;;;9.25;7.50;;;;;;;;5018786;28;52320;-45
2022/03/09 10:41:31;;;;;;;;;9.75;7.00;;;;;;;;5024820;28;51173;-46
2022/03/09 10:44:15;;;;;;;;;9.50;6.50;;;;;;;;5016263;28;51678;-43
2022/03/09 10:47:00;;;;;;;;;9.50;9.50;;;;;;;;5017013;28;51343;-45
2022/03/09 10:49:44;;;;;;;;;8.00;7.00;;;;;;;;5023361;28;51116;-48
2022/03/09 10:52:41;;;;;;;;;8.25;7.50;;;;;;;;5028192;28;51092;-45
2022/03/09 10:55:26;;;;;;;;;11.00;8.50;;;;;;;;5034920;28;51500;-47
2022/03/09 10:58:15;;;;;;;;;10.00;7.50;;;;;;;;5017954;28;51239;-44
2022/03/09 11:00:59;;;;;;;;;8.50;6.50;;;;;;;;5026702;28;51158;-48
2022/03/09 11:03:44;;;;;;;;;10.75;9.00;;;;;;;;5019335;28;51087;-47
2022/03/09 11:06:28;;;;;;;;;13.00;8.00;;;;;;;;5020510;28;51159;-46
2022/03/09 11:09:13;;;;;;;;;13.50;8.75;;;;;;;;5024154;28;51147;-48
2022/03/09 11:11:57;;;;;;;;;12.75;7.25;;;;;;;;5018773;28;51470;-45
2022/03/09 11:14:42;;;;;;;;;9.00;8.00;;;;;;;;5030899;28;51208;-47
2022/03/09 11:17:26;;;;;;;;;10.50;7.75;;;;;;;;5019552;28;51202;-47
2022/03/09 11:20:11;;;;;;;;;7.50;7.00;;;;;;;;5003494;28;51582;-45
2022/03/09 11:22:55;;;;;;;;;12.00;7.00;;;;;;;;5018446;28;51144;-45
2022/03/09 11:25:47;;;;;;;;;11.75;7.75;;;;;;;;5018463;28;51204;-46
2022/03/09 11:28:34;;;;;;;;;12.25;8.00;;;;;;;;5009744;28;51368;-50
2022/03/09 11:31:20;;;;;;;;;15.75;11.25;;;;;;;;5010198;28;51468;-48
2022/03/09 11:34:04;;;;;;;;;12.00;7.75;;;;;;;;5020949;28;51327;-45
2022/03/09 11:37:09;;;;;;;;;10.25;8.25;;;;;;;;5017298;28;51323;-47
2022/03/09 11:40:08;;;;;;;;;12.75;11.25;;;;;;;;5033700;28;51161;-46
2022/03/09 11:42:53;;;;;;;;;8.25;7.75;;;;;;;;5020991;28;51010;-46
2022/03/09 11:45:37;;;;;;;;;10.00;8.00;;;;;;;;5022385;28;51411;-46
2022/03/09 11:48:22;;;;;;;;;8.75;7.50;;;;;;;;5033802;28;51104;-44
2022/03/09 11:51:07;;;;;;;;;12.00;11.00;;;;;;;;5027426;28;51096;-47
2022/03/09 11:53:52;;;;;;;;;15.00;10.50;;;;;;;;5023748;28;51092;-47
2022/03/09 11:56:38;;;;;;;;;8.25;8.25;;;;;;;;5016849;28;51418;-45
2022/03/09 11:59:28;;;;;;;;;11.50;8.75;;;;;;;;5035086;28;51074;-49
2022/03/09 12:02:13;;;;;;;;;9.50;8.00;;;;;;;;5025563;28;51131;-45
2022/03/09 12:05:00;;;;;;;;;9.00;6.00;;;;;;;;5032802;28;51423;-50
2022/03/09 12:07:45;;;;;;;;;7.00;7.00;;;;;;;;5038175;28;51075;-47
2022/03/09 12:10:49;;;;;;;;;10.25;7.75;;;;;;;;5025962;28;51068;-43
2022/03/09 12:13:46;;;;;;;;;10.50;6.00;;;;;;;;5023506;28;51171;-43
2022/03/09 12:16:30;;;;;;;;;9.75;8.25;;;;;;;;5027074;28;51303;-48
2022/03/09 12:19:15;;;;;;;;;10.75;7.75;;;;;;;;5031530;28;51143;-47
2022/03/09 12:22:00;;;;;;;;;10.25;9.25;;;;;;;;5038934;28;51087;-47
2022/03/09 12:24:44;;;;;;;;;10.50;7.50;;;;;;;;5029615;28;51124;-45
2022/03/09 12:27:29;;;;;;;;;10.75;8.25;;;;;;;;5025689;28;51495;-45
2022/03/09 12:30:53;;;;;;;;;9.75;7.00;;;;;;;;5025368;28;51474;-47
2022/03/09 12:33:38;;;;;;;;;8.50;6.75;;;;;;;;4989981;28;51250;-45
2022/03/09 12:36:24;;;;;;;;;11.00;8.00;;;;;;;;4998083;28;51361;-46
2022/03/09 12:39:08;;;;;;;;;10.00;8.50;;;;;;;;5015720;28;51057;-47
2022/03/09 12:41:56;;;;;;;;;8.25;8.25;;;;;;;;5022950;28;51233;-46
2022/03/09 12:44:41;;;;;;;;;10.00;8.75;;;;;;;;5019674;28;51307;-45
2022/03/09 12:47:25;;;;;;;;;9.00;7.50;;;;;;;;5021324;28;52109;-45
2022/03/09 12:50:10;;;;;;;;;9.00;8.00;;;;;;;;5024681;28;51135;-47
2022/03/09 12:52:55;;;;;;;;;8.75;7.00;;;;;;;;5024964;28;51222;-47
2022/03/09 12:55:39;;;;;;;;;10.50;7.25;;;;;;;;5018916;28;51061;-45
2022/03/09 12:58:24;;;;;;;;;10.25;9.25;;;;;;;;5022969;28;51096;-49
2022/03/09 13:01:08;;;;;;;;;11.50;9.00;;;;;;;;5020770;28;51158;-46
2022/03/09 13:03:58;;;;;;;;;8.25;7.50;;;;;;;;5018251;28;51239;-47
2022/03/09 13:06:42;;;;;;;;;11.50;8.75;;;;;;;;4975153;28;51230;-48
2022/03/09 13:09:26;;;;;;;;;13.50;8.25;;;;;;;;5023550;28;51135;-44
2022/03/09 13:12:12;;;;;;;;;10.25;9.00;;;;;;;;5024332;28;51390;-48
2022/03/09 13:14:56;;;;;;;;;9.75;7.75;;;;;;;;5020778;28;51072;-45
2022/03/09 13:17:45;;;;;;;;;11.25;8.25;;;;;;;;5025369;28;51543;-52
2022/03/09 13:20:29;;;;;;;;;8.75;7.25;;;;;;;;5020775;28;51088;-49
2022/03/09 13:23:27;;;;;;;;;7.75;6.25;;;;;;;;5034787;28;51049;-45
2022/03/09 13:26:14;;;;;;;;;9.00;4.75;;;;;;;;5023901;28;51476;-48
2022/03/09 13:29:00;;;;;;;;;10.75;9.00;;;;;;;;5040949;28;51094;-49
2022/03/09 13:32:02;;;;;;;;;8.25;8.25;;;;;;;;5022262;28;51163;-46
2022/03/09 13:34:47;;;;;;;;;10.50;9.25;;;;;;;;5020700;28;51166;-47
2022/03/09 13:37:36;;;;;;;;;10.50;8.00;;;;;;;;5020687;28;51442;-49
2022/03/09 13:40:20;;;;;;;;;13.25;10.00;;;;;;;;5020904;28;52477;-45
2022/03/09 13:43:06;;;;;;;;;8.00;7.25;;;;;;;;5016223;28;51291;-47
2022/03/09 13:45:51;;;;;;;;;7.25;7.25;;;;;;;;5019423;28;51121;-48
2022/03/09 13:48:35;;;;;;;;;15.25;10.50;;;;;;;;5020372;28;51117;-47
2022/03/09 13:51:30;;;;;;;;;10.75;8.25;;;;;;;;5016344;28;51606;-48
2022/03/09 13:54:20;;;;;;;;;8.00;8.00;;;;;;;;5013174;28;51573;-46
2022/03/09 13:57:05;;;;;;;;;11.00;7.50;;;;;;;;5013655;28;51072;-43
2022/03/09 13:59:49;;;;;;;;;10.50;7.50;;;;;;;;5009596;28;51089;-48
2022/03/09 14:02:34;;;;;;;;;10.00;9.00;;;;;;;;5008085;28;51242;-48
2022/03/09 14:05:28;;;;;;;;;11.50;10.00;;;;;;;;5008820;28;51176;-48
2022/03/09 14:08:32;;;;;;;;;10.25;9.75;;;;;;;;5012430;28;51199;-45
2022/03/09 14:11:20;;;;;;;;;10.25;7.50;;;;;;;;5019369;28;51134;-44
2022/03/09 14:14:05;;;;;;;;;7.75;6.50;;;;;;;;5013896;28;51512;-46
2022/03/09 14:16:50;;;;;;;;;11.50;8.50;;;;;;;;5016598;28;51403;-48
2022/03/09 14:19:34;;;;;;;;;8.75;7.50;;;;;;;;5031943;28;51442;-48
2022/03/09 14:22:19;;;;;;;;;12.25;9.00;;;;;;;;5024793;28;51060;-45
2022/03/09 14:25:04;;;;;;;;;15.75;10.50;;;;;;;;5018719;28;51100;-49
2022/03/09 14:27:48;;;;;;;;;8.75;7.00;;;;;;;;5019811;28;51237;-47
2022/03/09 14:30:33;;;;;;;;;7.50;7.50;;;;;;;;5023844;28;51384;-50
2022/03/09 14:33:17;;;;;;;;;12.00;6.75;;;;;;;;5020387;28;51371;-49
2022/03/09 14:36:03;;;;;;;;;7.25;7.00;;;;;;;;5018857;28;51135;-47
2022/03/09 14:38:47;;;;;;;;;8.75;8.75;;;;;;;;5021103;28;51187;-45
2022/03/09 14:41:32;;;;;;;;;11.75;9.75;;;;;;;;5022783;28;51486;-50
2022/03/09 14:44:16;;;;;;;;;8.25;7.25;;;;;;;;5015345;28;51126;-47
2022/03/09 14:47:01;;;;;;;;;10.25;9.00;;;;;;;;5024730;28;51061;-46
2022/03/09 14:49:47;;;;;;;;;12.25;8.25;;;;;;;;5018306;28;51281;-45
2022/03/09 14:52:31;;;;;;;;;11.50;7.50;;;;;;;;5011850;28;51221;-45
2022/03/09 14:55:15;;;;;;;;;10.25;9.00;;;;;;;;5025954;28;51203;-51
2022/03/09 14:58:00;;;;;;;;;8.25;6.00;;;;;;;;5032765;28;51600;-45
2022/03/09 15:00:46;;;;;;;;;9.00;9.00;;;;;;;;5024467;28;51175;-44
2022/03/09 15:03:30;;;;;;;;;11.25;9.50;;;;;;;;5033147;28;51098;-50
2022/03/09 15:06:15;;;;;;;;;7.25;7.00;;;;;;;;5011940;28;51459;-47
2022/03/09 15:09:00;;;;;;;;;10.25;6.75;;;;;;;;5017353;28;51151;-49
2022/03/09 15:11:45;;;;;;;;;11.75;9.00;;;;;;;;5034101;28;51134;-48
2022/03/09 15:14:35;;;;;;;;;10.50;7.50;;;;;;;;5027922;28;51118;-47
2022/03/09 15:17:19;;;;;;;;;13.00;8.25;;;;;;;;5021954;28;51586;-46
2022/03/09 15:20:04;;;;;;;;;13.00;10.00;;;;;;;;5031050;28;51227;-47
2022/03/09 15:22:48;;;;;;;;;11.25;8.75;;;;;;;;5030972;28;51034;-47
2022/03/09 15:25:33;;;;;;;;;9.00;7.50;;;;;;;;5025908;28;51237;-48
2022/03/09 15:28:17;;;;;;;;;13.75;10.25;;;;;;;;5023487;28;51128;-46
2022/03/09 15:31:02;;;;;;;;;13.75;10.00;;;;;;;;5032492;28;51566;-51
2022/03/09 15:33:46;;;;;;;;;10.00;8.25;;;;;;;;5025805;28;51159;-42
2022/03/09 15:36:32;;;;;;;;;10.25;8.25;;;;;;;;5031004;28;51127;-47
2022/03/09 15:39:17;;;;;;;;;10.00;9.50;;;;;;;;5024680;28;51203;-45
2022/03/09 15:42:01;;;;;;;;;9.25;8.75;;;;;;;;5034606;28;51376;-46
2022/03/09 15:44:46;;;;;;;;;10.25;8.75;;;;;;;;5025801;28;51133;-45
2022/03/09 15:47:32;;;;;;;;;14.00;10.00;;;;;;;;5038934;28;51454;-45
2022/03/09 15:50:16;;;;;;;;;10.75;10.75;;;;;;;;5020736;28;51243;-50
2022/03/09 15:53:01;;;;;;;;;15.25;10.00;;;;;;;;5021861;28;51042;-45
2022/03/09 15:55:45;;;;;;;;;9.50;9.25;;;;;;;;5024089;28;51598;-49
2022/03/09 15:58:31;;;;;;;;;10.50;9.25;;;;;;;;5031639;28;51454;-46
2022/03/09 16:01:15;;;;;;;;;9.75;8.50;;;;;;;;5022446;28;51077;-47
2022/03/09 16:04:00;;;;;;;;;10.75;9.75;;;;;;;;5023690;28;51080;-47
2022/03/09 16:06:44;;;;;;;;;13.75;11.50;;;;;;;;5033413;28;51549;-50
2022/03/09 16:09:29;;;;;;;;;14.50;9.75;;;;;;;;5025075;28;50985;-47
2022/03/09 16:12:14;;;;;;;;;11.00;10.00;;;;;;;;5033404;28;51338;-46
2022/03/09 16:14:58;;;;;;;;;12.50;8.75;;;;;;;;5032757;28;51195;-47
2022/03/09 16:17:43;;;;;;;;;10.25;7.75;;;;;;;;5038223;28;51416;-47
2022/03/09 16:20:27;;;;;;;;;11.75;10.25;;;;;;;;5031247;28;51126;-47